createdAt,value
2024-04-30T00:00:21.086Z,13.48
2024-04-30T00:02:47.635Z,13.47
2024-04-30T00:05:14.315Z,13.46
2024-04-30T00:07:42.011Z,13.50
2024-04-30T00:10:08.608Z,13.53
2024-04-30T00:12:35.190Z,13.53
2024-04-30T00:15:02.923Z,13.53
2024-04-30T00:17:29.679Z,13.55
2024-04-30T00:19:56.524Z,13.58
2024-04-30T00:22:23.302Z,13.62
2024-04-30T00:24:49.891Z,13.66
2024-04-30T00:27:16.512Z,13.65
2024-04-30T00:29:43.165Z,13.62
2024-04-30T00:32:09.756Z,13.63
2024-04-30T00:34:38.185Z,13.64
2024-04-30T00:37:04.810Z,13.66
2024-04-30T00:39:31.457Z,13.64
2024-04-30T00:41:58.171Z,13.64
2024-04-30T00:44:24.787Z,13.65
2024-04-30T00:46:51.460Z,13.64
2024-04-30T00:49:18.979Z,13.65
2024-04-30T00:51:45.685Z,13.61
2024-04-30T00:54:12.879Z,13.57
2024-04-30T00:56:39.516Z,13.55
2024-04-30T00:59:06.087Z,13.54
2024-04-30T01:01:33.336Z,13.52
2024-04-30T01:03:59.962Z,13.52
2024-04-30T01:06:26.562Z,13.52
2024-04-30T01:08:53.293Z,13.51
2024-04-30T01:11:20.384Z,13.47
2024-04-30T01:13:47.029Z,13.46
2024-04-30T01:16:13.649Z,13.39
2024-04-30T01:18:40.242Z,13.35
2024-04-30T01:21:06.823Z,13.33
2024-04-30T01:23:33.412Z,13.28
2024-04-30T01:26:00.510Z,13.25
2024-04-30T01:28:27.133Z,13.23
2024-04-30T01:30:54.468Z,13.23
2024-04-30T01:33:21.053Z,13.23
2024-04-30T01:35:47.861Z,13.19
2024-04-30T01:38:14.564Z,13.16
2024-04-30T01:40:41.246Z,13.14
2024-04-30T01:43:08.058Z,13.15
2024-04-30T01:45:34.777Z,13.11
2024-04-30T01:48:01.488Z,13.10
2024-04-30T01:50:28.095Z,13.11
2024-04-30T01:52:54.661Z,13.10
2024-04-30T01:55:21.278Z,13.11
2024-04-30T01:57:48.127Z,13.11
2024-04-30T02:00:14.920Z,13.08
2024-04-30T02:02:41.505Z,13.05
2024-04-30T02:05:13.755Z,12.99
2024-04-30T02:07:48.017Z,12.97
2024-04-30T02:10:15.010Z,12.93
2024-04-30T02:12:41.623Z,12.88
2024-04-30T02:15:08.368Z,12.88
2024-04-30T02:17:35.314Z,12.81
2024-04-30T02:20:02.974Z,12.79
2024-04-30T02:22:29.662Z,12.76
2024-04-30T02:24:56.839Z,12.73
2024-04-30T02:27:23.438Z,12.69
2024-04-30T02:29:50.081Z,12.65
2024-04-30T02:32:35.250Z,12.62
2024-04-30T02:35:01.880Z,12.59
2024-04-30T02:37:28.570Z,12.57
2024-04-30T02:39:55.180Z,12.53
2024-04-30T02:42:21.760Z,12.53
2024-04-30T02:44:48.354Z,12.50
2024-04-30T02:47:14.949Z,12.42
2024-04-30T02:49:41.561Z,12.35
2024-04-30T02:52:08.215Z,12.29
2024-04-30T02:54:34.839Z,12.24
2024-04-30T02:57:01.459Z,12.17
2024-04-30T02:59:28.222Z,12.15
2024-04-30T03:01:55.815Z,12.10
2024-04-30T03:04:22.577Z,12.12
2024-04-30T03:06:49.423Z,12.11
2024-04-30T03:09:16.075Z,12.08
2024-04-30T03:11:45.960Z,12.02
2024-04-30T03:14:13.547Z,11.96
2024-04-30T03:16:43.582Z,11.94
2024-04-30T03:19:10.230Z,11.93
2024-04-30T03:21:36.877Z,11.93
2024-04-30T03:24:03.478Z,11.93
2024-04-30T03:26:30.135Z,11.89
2024-04-30T03:28:56.726Z,11.88
2024-04-30T03:31:23.318Z,11.89
2024-04-30T03:33:50.493Z,11.88
2024-04-30T03:36:19.282Z,11.85
2024-04-30T03:38:45.936Z,11.85
2024-04-30T03:41:14.130Z,11.87
2024-04-30T03:43:40.776Z,11.86
2024-04-30T03:46:13.170Z,11.84
2024-04-30T03:48:40.068Z,11.83
2024-04-30T03:51:06.673Z,11.81
2024-04-30T03:53:33.213Z,11.77
2024-04-30T03:55:59.803Z,11.73
2024-04-30T03:58:26.463Z,11.69
2024-04-30T04:00:53.138Z,11.67
2024-04-30T04:03:19.904Z,11.67
2024-04-30T04:05:46.625Z,11.66
2024-04-30T04:08:13.214Z,11.69
2024-04-30T04:10:42.542Z,11.70
2024-04-30T04:13:27.967Z,11.72
2024-04-30T04:15:54.673Z,11.75
2024-04-30T04:18:21.315Z,11.79
2024-04-30T04:20:47.949Z,11.79
2024-04-30T04:23:14.489Z,11.78
2024-04-30T04:25:41.189Z,11.79
2024-04-30T04:28:07.805Z,11.76
2024-04-30T04:30:34.399Z,11.72
2024-04-30T04:33:01.634Z,11.68
2024-04-30T04:35:28.344Z,11.67
2024-04-30T04:37:54.955Z,11.68
2024-04-30T04:40:21.578Z,11.73
2024-04-30T04:42:48.161Z,11.77
2024-04-30T04:45:14.761Z,11.82
2024-04-30T04:47:41.383Z,11.87
2024-04-30T04:50:08.247Z,11.92
2024-04-30T04:52:34.968Z,11.96
2024-04-30T04:55:04.099Z,12.03
2024-04-30T04:57:31.396Z,12.12
2024-04-30T04:59:58.245Z,12.18
2024-04-30T05:02:24.860Z,12.20
2024-04-30T05:04:51.598Z,12.22
2024-04-30T05:07:18.607Z,12.16
2024-04-30T05:09:45.818Z,11.99
2024-04-30T05:12:12.471Z,11.96
2024-04-30T05:14:39.034Z,12.01
2024-04-30T05:17:06.719Z,12.05
2024-04-30T05:19:33.414Z,12.06
2024-04-30T05:22:00.088Z,12.05
2024-04-30T05:24:27.056Z,12.13
2024-04-30T05:26:53.608Z,12.18
2024-04-30T05:29:20.157Z,12.25
2024-04-30T05:31:46.764Z,12.29
2024-04-30T05:34:13.400Z,12.35
2024-04-30T05:36:40.102Z,12.40
2024-04-30T05:39:06.723Z,12.44
2024-04-30T05:41:33.295Z,12.48
2024-04-30T05:44:00.850Z,12.51
2024-04-30T05:46:27.687Z,12.53
2024-04-30T05:48:54.572Z,12.59
2024-04-30T05:51:21.145Z,12.63
2024-04-30T05:53:47.698Z,12.65
2024-04-30T05:56:14.311Z,12.70
2024-04-30T05:58:40.936Z,12.73
2024-04-30T06:01:07.720Z,12.80
2024-04-30T06:03:34.398Z,12.88
2024-04-30T06:06:00.978Z,12.94
2024-04-30T06:08:27.557Z,13.02
2024-04-30T06:10:54.236Z,13.11
2024-04-30T06:13:20.985Z,13.17
2024-04-30T06:15:47.559Z,13.24
2024-04-30T06:18:14.192Z,13.31
2024-04-30T06:20:40.878Z,13.36
2024-04-30T06:23:07.424Z,13.40
2024-04-30T06:25:34.044Z,13.48
2024-04-30T06:28:00.624Z,13.52
2024-04-30T06:30:27.162Z,13.57
2024-04-30T06:32:53.811Z,13.58
2024-04-30T06:35:20.444Z,13.65
2024-04-30T06:37:47.020Z,13.72
2024-04-30T06:40:13.667Z,13.81
2024-04-30T06:42:40.235Z,13.87
2024-04-30T06:45:07.060Z,13.91
2024-04-30T06:47:34.104Z,13.93
2024-04-30T06:50:00.819Z,13.97
2024-04-30T06:52:27.419Z,14.02
2024-04-30T06:54:54.019Z,14.05
2024-04-30T06:57:20.602Z,14.15
2024-04-30T06:59:47.143Z,14.23
2024-04-30T07:02:13.726Z,14.32
2024-04-30T07:04:40.323Z,14.45
2024-04-30T07:07:06.974Z,14.56
2024-04-30T07:09:33.561Z,14.65
2024-04-30T07:12:02.879Z,14.80
2024-04-30T07:14:29.717Z,14.93
2024-04-30T07:17:00.159Z,15.05
2024-04-30T07:19:33.460Z,15.16
2024-04-30T07:22:00.195Z,15.29
2024-04-30T07:24:26.842Z,15.42
2024-04-30T07:26:54.953Z,15.55
2024-04-30T07:29:21.576Z,15.63
2024-04-30T07:31:48.299Z,15.73
2024-04-30T07:34:14.921Z,15.81
2024-04-30T07:36:41.519Z,15.92
2024-04-30T07:39:08.065Z,16.02
2024-04-30T07:41:34.604Z,16.11
2024-04-30T07:44:01.157Z,16.17
2024-04-30T07:46:27.746Z,16.29
2024-04-30T07:48:55.264Z,16.36
2024-04-30T07:51:21.939Z,16.42
2024-04-30T07:53:48.677Z,16.47
2024-04-30T07:56:15.212Z,16.54
2024-04-30T07:58:41.906Z,16.66
2024-04-30T08:01:08.672Z,16.78
2024-04-30T08:03:35.301Z,16.90
2024-04-30T08:06:10.524Z,16.97
2024-04-30T08:08:41.516Z,17.11
2024-04-30T08:11:08.080Z,17.20
2024-04-30T08:13:34.785Z,17.28
2024-04-30T08:16:01.423Z,17.36
2024-04-30T08:18:28.400Z,17.45
2024-04-30T08:20:54.940Z,17.52
2024-04-30T08:23:21.565Z,17.56
2024-04-30T08:25:48.154Z,17.67
2024-04-30T08:28:14.774Z,17.77
2024-04-30T08:30:41.694Z,17.82
2024-04-30T08:33:08.751Z,17.92
2024-04-30T08:35:35.348Z,18.00
2024-04-30T08:38:03.188Z,18.12
2024-04-30T08:40:29.970Z,18.20
2024-04-30T08:42:56.917Z,18.28
2024-04-30T08:45:27.014Z,18.33
2024-04-30T08:47:55.255Z,18.34
2024-04-30T08:50:26.476Z,18.40
2024-04-30T08:52:54.879Z,18.39
2024-04-30T08:55:22.269Z,18.37
2024-04-30T08:57:48.875Z,18.32
2024-04-30T09:00:15.532Z,18.35
2024-04-30T09:02:42.147Z,18.40
2024-04-30T09:05:09.575Z,18.47
2024-04-30T09:07:38.057Z,18.55
2024-04-30T09:10:05.018Z,18.66
2024-04-30T09:12:31.755Z,18.70
2024-04-30T09:14:58.366Z,18.72
2024-04-30T09:17:25.987Z,18.76
2024-04-30T09:20:09.391Z,18.77
2024-04-30T09:22:46.982Z,18.79
2024-04-30T09:25:13.828Z,18.83
2024-04-30T09:27:40.401Z,18.89
2024-04-30T09:30:20.986Z,18.97
2024-04-30T09:32:47.687Z,19.08
2024-04-30T09:35:27.650Z,19.14
2024-04-30T09:38:01.265Z,19.17
2024-04-30T09:40:30.460Z,19.26
2024-04-30T09:42:57.201Z,19.36
2024-04-30T09:45:24.644Z,19.41
2024-04-30T09:47:51.821Z,19.43
2024-04-30T09:50:19.124Z,19.49
2024-04-30T09:52:46.706Z,19.54
2024-04-30T09:55:14.618Z,19.54
2024-04-30T09:57:43.819Z,19.62
2024-04-30T10:00:12.354Z,19.64
2024-04-30T10:02:48.413Z,19.67
2024-04-30T10:05:18.986Z,19.69
2024-04-30T10:07:47.744Z,19.72
2024-04-30T10:10:31.397Z,19.77
2024-04-30T10:13:11.973Z,19.87
2024-04-30T10:15:39.313Z,19.95
2024-04-30T10:18:07.369Z,20.06
2024-04-30T10:20:34.076Z,20.11
2024-04-30T10:23:06.122Z,20.15
2024-04-30T10:25:32.859Z,20.17
2024-04-30T10:28:07.651Z,20.22
2024-04-30T10:30:34.530Z,20.27
2024-04-30T10:33:01.346Z,20.30
2024-04-30T10:35:38.627Z,20.33
2024-04-30T10:38:05.258Z,20.37
2024-04-30T10:40:34.199Z,20.42
2024-04-30T10:43:00.852Z,20.50
2024-04-30T10:45:27.692Z,20.56
2024-04-30T10:47:54.400Z,20.59
2024-04-30T10:50:21.265Z,20.62
2024-04-30T10:52:48.084Z,20.67
2024-04-30T10:55:15.478Z,20.71
2024-04-30T10:57:43.869Z,20.76
2024-04-30T11:00:11.606Z,20.76
2024-04-30T11:02:47.256Z,20.78
2024-04-30T11:05:16.643Z,20.82
2024-04-30T11:08:03.649Z,20.92
2024-04-30T11:10:33.895Z,21.04
2024-04-30T11:13:04.053Z,21.11
2024-04-30T11:15:30.867Z,21.15
2024-04-30T11:17:57.540Z,21.20
2024-04-30T11:20:24.187Z,21.28
2024-04-30T11:22:50.724Z,21.35
2024-04-30T11:25:17.383Z,21.44
2024-04-30T11:27:44.102Z,21.52
2024-04-30T11:30:10.830Z,21.57
2024-04-30T11:32:37.437Z,21.66
2024-04-30T11:35:04.126Z,21.75
2024-04-30T11:37:30.767Z,21.81
2024-04-30T11:39:57.355Z,21.83
2024-04-30T11:42:27.689Z,21.92
2024-04-30T11:45:03.422Z,21.98
2024-04-30T11:47:30.113Z,22.02
2024-04-30T11:49:56.741Z,22.14
2024-04-30T11:52:23.309Z,22.16
2024-04-30T11:54:49.865Z,22.19
2024-04-30T11:57:16.407Z,22.25
2024-04-30T11:59:42.970Z,22.32
2024-04-30T12:02:09.560Z,22.34
2024-04-30T12:04:36.232Z,22.39
2024-04-30T12:07:02.908Z,22.45
2024-04-30T12:09:29.462Z,22.55
2024-04-30T12:11:56.007Z,22.65
2024-04-30T12:14:22.571Z,22.75
2024-04-30T12:16:50.404Z,22.80
2024-04-30T12:19:17.136Z,22.83
2024-04-30T12:21:44.638Z,22.92
2024-04-30T12:24:11.482Z,23.04
2024-04-30T12:26:38.209Z,23.13
2024-04-30T12:29:05.090Z,23.21
2024-04-30T12:31:31.943Z,23.29
2024-04-30T12:33:58.583Z,23.38
2024-04-30T12:36:25.164Z,23.46
2024-04-30T12:38:51.784Z,23.53
2024-04-30T12:41:19.253Z,23.61
2024-04-30T12:43:45.820Z,23.69
2024-04-30T12:46:12.473Z,23.91
2024-04-30T12:48:39.164Z,24.00
2024-04-30T12:51:05.828Z,24.04
2024-04-30T12:53:32.375Z,24.05
2024-04-30T12:55:59.095Z,24.13
2024-04-30T12:58:25.746Z,24.21
2024-04-30T13:00:54.719Z,24.28
2024-04-30T13:03:21.778Z,24.35
2024-04-30T13:05:48.440Z,24.43
2024-04-30T13:08:15.151Z,24.54
2024-04-30T13:10:41.850Z,24.60
2024-04-30T13:13:09.075Z,24.69
2024-04-30T13:15:35.704Z,24.79
2024-04-30T13:18:02.390Z,24.85
2024-04-30T13:20:28.988Z,24.86
2024-04-30T13:22:55.531Z,24.83
2024-04-30T13:25:22.180Z,24.81
2024-04-30T13:27:48.760Z,24.87
2024-04-30T13:30:15.471Z,24.91
2024-04-30T13:32:44.958Z,24.96
2024-04-30T13:35:11.602Z,25.04
2024-04-30T13:37:39.591Z,25.11
2024-04-30T13:40:07.349Z,25.18
2024-04-30T13:42:34.167Z,25.25
2024-04-30T13:45:00.817Z,25.33
2024-04-30T13:47:27.535Z,25.43
2024-04-30T13:49:54.917Z,25.49
2024-04-30T13:52:21.601Z,25.54
2024-04-30T13:54:48.251Z,25.66
2024-04-30T13:57:14.868Z,25.75
2024-04-30T13:59:41.436Z,25.83
2024-04-30T14:02:10.947Z,25.83
2024-04-30T14:04:37.752Z,25.82
2024-04-30T14:07:04.529Z,25.87
2024-04-30T14:09:33.944Z,25.84
2024-04-30T14:12:02.824Z,25.81
2024-04-30T14:14:29.608Z,25.81
2024-04-30T14:16:56.279Z,25.79
2024-04-30T14:19:23.338Z,25.76
2024-04-30T14:21:49.958Z,25.84
2024-04-30T14:24:16.532Z,25.81
2024-04-30T14:26:44.573Z,25.83
2024-04-30T14:29:12.218Z,25.91
2024-04-30T14:31:38.880Z,26.00
2024-04-30T14:34:05.436Z,26.10
2024-04-30T14:36:35.966Z,26.11
2024-04-30T14:39:06.973Z,26.13
2024-04-30T14:41:34.378Z,26.12
2024-04-30T14:44:00.979Z,26.20
2024-04-30T14:46:28.071Z,26.24
2024-04-30T14:48:54.803Z,26.27
2024-04-30T14:51:21.423Z,26.36
2024-04-30T14:53:48.017Z,26.40
2024-04-30T14:56:15.283Z,26.52
2024-04-30T14:58:42.203Z,26.66
2024-04-30T15:01:08.926Z,26.76
2024-04-30T15:03:35.661Z,26.80
2024-04-30T15:06:02.297Z,26.83
2024-04-30T15:08:29.150Z,26.87
2024-04-30T15:10:55.711Z,26.89
2024-04-30T15:13:22.331Z,26.91
2024-04-30T15:15:48.964Z,26.92
2024-04-30T15:18:15.672Z,26.82
2024-04-30T15:20:42.421Z,26.78
2024-04-30T15:23:09.442Z,26.80
2024-04-30T15:25:36.643Z,26.82
2024-04-30T15:28:03.479Z,26.78
2024-04-30T15:30:30.076Z,26.73
2024-04-30T15:32:56.821Z,26.73
2024-04-30T15:35:23.620Z,26.80
2024-04-30T15:37:50.248Z,26.89
2024-04-30T15:40:16.924Z,26.94
2024-04-30T15:42:46.428Z,26.98
2024-04-30T15:45:13.038Z,27.05
2024-04-30T15:47:40.087Z,27.13
2024-04-30T15:50:06.999Z,27.23
2024-04-30T15:52:33.821Z,27.28
2024-04-30T15:55:01.709Z,27.34
2024-04-30T15:57:30.540Z,27.34
2024-04-30T15:59:57.209Z,27.39
2024-04-30T16:02:23.808Z,27.42
2024-04-30T16:04:50.404Z,27.36
2024-04-30T16:07:16.975Z,27.36
2024-04-30T16:09:44.432Z,27.26
2024-04-30T16:12:10.970Z,27.12
2024-04-30T16:14:37.580Z,26.99
2024-04-30T16:17:04.449Z,26.90
2024-04-30T16:19:31.125Z,26.79
2024-04-30T16:21:57.697Z,26.74
2024-04-30T16:24:25.317Z,26.74
2024-04-30T16:26:52.161Z,26.76
2024-04-30T16:29:18.720Z,26.79
2024-04-30T16:31:45.290Z,26.84
2024-04-30T16:34:11.883Z,26.91
2024-04-30T16:36:38.439Z,26.94
2024-04-30T16:39:05.940Z,26.94
2024-04-30T16:41:32.517Z,26.93
2024-04-30T16:43:59.192Z,26.88
2024-04-30T16:46:26.108Z,26.86
2024-04-30T16:48:54.281Z,26.79
2024-04-30T16:51:21.122Z,26.72
2024-04-30T16:53:47.695Z,26.65
2024-04-30T16:56:15.328Z,26.53
2024-04-30T16:58:42.024Z,26.47
2024-04-30T17:01:08.723Z,26.42
2024-04-30T17:03:40.134Z,26.34
2024-04-30T17:06:11.656Z,26.26
2024-04-30T17:08:38.984Z,26.17
2024-04-30T17:11:06.999Z,26.12
2024-04-30T17:13:34.336Z,25.99
2024-04-30T17:16:02.095Z,25.88
2024-04-30T17:18:28.766Z,25.76
2024-04-30T17:20:59.238Z,25.66
2024-04-30T17:23:25.833Z,25.46
2024-04-30T17:25:52.505Z,25.33
2024-04-30T17:28:20.767Z,25.22
2024-04-30T17:30:47.470Z,25.11
2024-04-30T17:33:14.130Z,24.94
2024-04-30T17:35:40.827Z,24.79
2024-04-30T17:38:09.568Z,24.59
2024-04-30T17:40:36.029Z,24.43
2024-04-30T17:43:02.674Z,24.32
2024-04-30T17:45:29.319Z,24.18
2024-04-30T17:47:56.969Z,24.04
2024-04-30T17:50:23.562Z,23.88
2024-04-30T17:52:50.227Z,23.77
2024-04-30T17:55:16.877Z,23.60
2024-04-30T17:57:43.719Z,23.45
2024-04-30T18:00:10.619Z,23.28
2024-04-30T18:02:41.839Z,23.13
2024-04-30T18:05:09.536Z,22.94
2024-04-30T18:07:36.122Z,22.81
2024-04-30T18:10:03.173Z,22.68
2024-04-30T18:12:29.765Z,22.54
2024-04-30T18:14:56.331Z,22.44
2024-04-30T18:17:23.184Z,22.29
2024-04-30T18:19:49.844Z,22.19
2024-04-30T18:22:16.384Z,22.08
2024-04-30T18:24:42.978Z,21.97
2024-04-30T18:27:09.573Z,21.86
2024-04-30T18:29:36.192Z,21.72
2024-04-30T18:32:04.009Z,21.63
2024-04-30T18:34:30.815Z,21.51
2024-04-30T18:36:57.523Z,21.37
2024-04-30T18:39:24.227Z,21.23
2024-04-30T18:41:50.832Z,21.10
2024-04-30T18:44:17.384Z,20.98
2024-04-30T18:46:45.118Z,20.88
2024-04-30T18:49:11.775Z,20.76
2024-04-30T18:51:41.324Z,20.67
2024-04-30T18:54:08.903Z,20.57
2024-04-30T18:56:39.022Z,20.49
2024-04-30T18:59:05.557Z,20.44
2024-04-30T19:01:36.465Z,20.37
2024-04-30T19:04:03.779Z,20.30
2024-04-30T19:06:30.725Z,20.26
2024-04-30T19:08:57.891Z,20.19
2024-04-30T19:11:24.537Z,20.08
2024-04-30T19:13:51.154Z,20.02
2024-04-30T19:16:17.709Z,19.96
2024-04-30T19:18:44.413Z,19.90
2024-04-30T19:21:11.902Z,19.82
2024-04-30T19:23:38.688Z,19.70
2024-04-30T19:26:05.382Z,19.64
2024-04-30T19:28:32.202Z,19.57
2024-04-30T19:30:59.024Z,19.49
2024-04-30T19:33:25.899Z,19.40
2024-04-30T19:35:52.850Z,19.32
2024-04-30T19:38:19.411Z,19.23
2024-04-30T19:40:46.231Z,19.14
2024-04-30T19:43:16.245Z,19.07
2024-04-30T19:45:43.675Z,19.00
2024-04-30T19:48:15.277Z,18.89
2024-04-30T19:50:44.506Z,18.83
2024-04-30T19:53:11.131Z,18.76
2024-04-30T19:55:37.705Z,18.70
2024-04-30T19:58:04.365Z,18.64
2024-04-30T20:00:31.118Z,18.56
2024-04-30T20:02:58.906Z,18.52
2024-04-30T20:05:25.514Z,18.48
2024-04-30T20:07:52.719Z,18.45
2024-04-30T20:10:19.287Z,18.44
2024-04-30T20:12:46.091Z,18.38
2024-04-30T20:15:12.893Z,18.34
2024-04-30T20:17:39.500Z,18.31
2024-04-30T20:20:06.487Z,18.30
2024-04-30T20:22:33.068Z,18.28
2024-04-30T20:24:59.771Z,18.28
2024-04-30T20:27:26.425Z,18.27
2024-04-30T20:29:53.052Z,18.25
2024-04-30T20:32:19.620Z,18.25
2024-04-30T20:34:46.161Z,18.24
2024-04-30T20:37:12.804Z,18.20
2024-04-30T20:39:39.757Z,18.15
2024-04-30T20:42:06.671Z,18.11
2024-04-30T20:44:33.256Z,18.06
2024-04-30T20:46:59.820Z,18.06
2024-04-30T20:49:26.425Z,18.00
2024-04-30T20:51:53.091Z,17.97
2024-04-30T20:54:20.226Z,17.94
2024-04-30T20:56:46.803Z,17.92
2024-04-30T20:59:13.547Z,17.90
2024-04-30T21:01:40.332Z,17.83
2024-04-30T21:04:07.270Z,17.78
2024-04-30T21:06:33.981Z,17.74
2024-04-30T21:09:00.541Z,17.76
2024-04-30T21:11:27.315Z,17.73
2024-04-30T21:13:53.998Z,17.68
2024-04-30T21:16:20.774Z,17.66
2024-04-30T21:18:47.508Z,17.66
2024-04-30T21:21:14.243Z,17.64
2024-04-30T21:23:43.110Z,17.66
2024-04-30T21:26:10.219Z,17.63
2024-04-30T21:28:37.770Z,17.61
2024-04-30T21:31:04.596Z,17.63
2024-04-30T21:33:31.412Z,17.63
2024-04-30T21:35:58.366Z,17.69
2024-04-30T21:38:24.961Z,17.70
2024-04-30T21:40:51.664Z,17.70
2024-04-30T21:43:18.413Z,17.71
2024-04-30T21:45:45.235Z,17.68
2024-04-30T21:48:12.570Z,17.64
2024-04-30T21:50:39.166Z,17.61
2024-04-30T21:53:05.742Z,17.57
2024-04-30T21:55:32.293Z,17.54
2024-04-30T21:57:58.923Z,17.56
2024-04-30T22:00:25.660Z,17.53
2024-04-30T22:02:57.472Z,17.52
2024-04-30T22:05:26.948Z,17.47
2024-04-30T22:07:53.535Z,17.42
2024-04-30T22:10:20.175Z,17.39
2024-04-30T22:12:46.891Z,17.35
2024-04-30T22:15:16.894Z,17.32
2024-04-30T22:17:43.539Z,17.28
2024-04-30T22:20:10.342Z,17.27
2024-04-30T22:22:36.913Z,17.26
2024-04-30T22:25:04.638Z,17.24
2024-04-30T22:27:31.252Z,17.22
2024-04-30T22:30:05.798Z,17.19
2024-04-30T22:32:41.299Z,17.17
2024-04-30T22:35:08.038Z,17.18
2024-04-30T22:37:34.596Z,17.16
2024-04-30T22:40:01.376Z,17.18
2024-04-30T22:42:28.178Z,17.19
2024-04-30T22:44:54.745Z,17.16
2024-04-30T22:47:21.388Z,17.15
2024-04-30T22:49:48.002Z,17.11
2024-04-30T22:52:15.095Z,17.12
2024-04-30T22:54:43.316Z,17.14
2024-04-30T22:57:10.016Z,17.12
2024-04-30T22:59:36.656Z,17.11
2024-04-30T23:02:03.234Z,17.14
2024-04-30T23:04:29.900Z,17.17
2024-04-30T23:06:56.657Z,17.18
2024-04-30T23:09:23.382Z,17.18
2024-04-30T23:11:50.337Z,17.18
2024-04-30T23:14:16.918Z,17.14
2024-04-30T23:16:43.564Z,17.11
2024-04-30T23:19:10.517Z,17.08
2024-04-30T23:21:38.569Z,17.08
2024-04-30T23:24:05.927Z,17.10
2024-04-30T23:26:32.518Z,17.08
2024-04-30T23:28:59.122Z,17.06
2024-04-30T23:31:25.785Z,17.03
2024-04-30T23:33:52.510Z,17.02
2024-04-30T23:36:20.101Z,16.99
2024-04-30T23:38:46.768Z,17.00
2024-04-30T23:41:13.478Z,16.98
2024-04-30T23:43:40.172Z,16.96
2024-04-30T23:46:07.514Z,16.93
2024-04-30T23:48:34.093Z,16.91
2024-04-30T23:51:00.722Z,16.88
2024-04-30T23:53:27.316Z,16.84
2024-04-30T23:55:53.859Z,16.82
2024-04-30T23:58:20.410Z,16.81
